Time;durP1;ratioP1;P1;durP2;ratioP2;P2;SDS_P1;SDS_P2;PMS_P1;PMS_P2;Temp;Humidity;BMP_temperature;BMP_pressure;BME280_temperature;BME280_humidity;BME280_pressure;Samples;Min_cycle;Max_cycle;Signal;HPM_P1;HPM_P2
2022/10/29 00:00:57;;;;;;;19.70;8.60;;;;;;;16.52;100.00;102042.59;6097434;23;20026;-52
2022/10/29 00:03:25;;;;;;;23.63;9.00;;;;;;;16.54;100.00;102034.06;6096842;23;20026;-50
2022/10/29 00:06:01;;;;;;;27.08;8.95;;;;;;;16.55;100.00;102031.06;6095062;23;20069;-54
2022/10/29 00:08:30;;;;;;;22.83;8.93;;;;;;;16.54;100.00;102034.06;6048152;23;20101;-54
2022/10/29 00:11:24;;;;;;;20.02;8.98;;;;;;;16.52;100.00;102020.56;6096925;23;20022;-56
2022/10/29 00:13:58;;;;;;;19.83;8.95;;;;;;;16.48;100.00;102008.50;6093592;23;20085;-52
2022/10/29 00:16:27;;;;;;;20.55;8.43;;;;;;;16.43;100.00;101999.41;6097011;23;20026;-53
2022/10/29 00:18:56;;;;;;;27.20;8.80;;;;;;;16.36;100.00;102002.47;6097147;23;20026;-52
2022/10/29 00:21:25;;;;;;;25.48;9.50;;;;;;;16.31;100.00;102010.75;6094705;23;20078;-50
2022/10/29 00:23:52;;;;;;;22.95;9.15;;;;;;;16.25;100.00;101998.09;6095280;23;20029;-50
2022/10/29 00:26:21;;;;;;;19.30;8.55;;;;;;;16.22;100.00;102001.41;6095689;23;20444;-49
2022/10/29 00:28:54;;;;;;;20.27;9.00;;;;;;;16.23;100.00;102005.78;6095538;23;20030;-52
2022/10/29 00:31:25;;;;;;;19.70;8.63;;;;;;;16.25;100.00;102003.59;6071945;23;20033;-49
2022/10/29 00:33:54;;;;;;;18.23;8.55;;;;;;;16.27;100.00;102012.41;6096253;23;20065;-50
2022/10/29 00:36:27;;;;;;;19.15;8.32;;;;;;;16.30;100.00;102011.84;6096240;23;20033;-52
2022/10/29 00:38:58;;;;;;;18.38;8.38;;;;;;;16.33;100.00;102011.28;6096659;23;20026;-54
2022/10/29 00:41:28;;;;;;;18.00;8.13;;;;;;;16.34;100.00;102013.75;6096140;23;20030;-50
2022/10/29 00:44:14;;;;;;;19.25;8.55;;;;;;;16.36;100.00;102013.47;6095219;23;20061;-54
2022/10/29 00:46:45;;;;;;;23.17;8.70;;;;;;;16.37;100.00;102020.63;6097040;23;20030;-51
2022/10/29 00:49:13;;;;;;;19.02;8.60;;;;;;;16.34;100.00;102012.94;6095844;23;20403;-53
2022/10/29 00:51:41;;;;;;;20.08;8.70;;;;;;;16.30;100.00;102023.66;6095971;23;20469;-53
2022/10/29 00:54:10;;;;;;;18.55;8.45;;;;;;;16.27;100.00;102013.22;6094687;23;20380;-51
2022/10/29 00:56:45;;;;;;;17.30;8.20;;;;;;;16.27;100.00;102017.91;6095212;23;20015;-51
2022/10/29 00:59:15;;;;;;;24.38;8.20;;;;;;;16.24;100.00;102026.72;6097015;23;20073;-57
2022/10/29 01:01:44;;;;;;;23.52;9.15;;;;;;;16.22;100.00;102020.66;6095154;23;20022;-57
2022/10/29 01:04:12;;;;;;;19.83;8.85;;;;;;;16.21;100.00;102030.00;6071635;23;20026;-55
2022/10/29 01:06:45;;;;;;;20.83;9.00;;;;;;;16.19;100.00;102022.84;6071582;23;20041;-54
2022/10/29 01:09:13;;;;;;;28.27;9.13;;;;;;;16.20;100.00;102029.16;6096746;23;20022;-50
2022/10/29 01:12:08;;;;;;;19.48;8.27;;;;;;;16.16;100.00;102028.91;6096658;23;20018;-54
2022/10/29 01:14:45;;;;;;;19.70;9.38;;;;;;;16.14;100.00;102017.38;6096338;23;20026;-52
2022/10/29 01:17:57;;;;;;;20.02;9.30;;;;;;;16.16;100.00;102012.41;6095512;23;20029;-51
2022/10/29 01:20:35;;;;;;;25.30;8.73;;;;;;;16.21;100.00;102019.00;6095294;23;20022;-51
2022/10/29 01:23:22;;;;;;;23.48;9.48;;;;;;;16.23;100.00;102005.78;6094674;23;20023;-53
2022/10/29 01:26:20;;;;;;;21.00;9.43;;;;;;;16.23;100.00;101998.34;6097433;23;20022;-55
2022/10/29 01:29:22;;;;;;;22.30;9.00;;;;;;;16.25;100.00;102003.59;6095362;23;20018;-54
2022/10/29 01:32:24;;;;;;;22.58;9.05;;;;;;;16.26;100.00;102000.56;6095896;23;20022;-53
2022/10/29 01:35:42;;;;;;;24.55;9.40;;;;;;;16.24;100.00;101994.53;6083773;23;20030;-56
2022/10/29 01:38:26;;;;;;;23.77;8.63;;;;;;;16.17;100.00;102002.22;5961709;23;20028;-52
2022/10/29 01:41:18;;;;;;;19.85;8.70;;;;;;;16.12;100.00;101997.56;6008358;23;20020;-53
2022/10/29 01:44:00;;;;;;;20.08;8.68;;;;;;;16.14;100.00;101986.28;6083690;23;20086;-51
2022/10/29 01:47:06;;;;;;;24.27;9.10;;;;;;;16.17;100.00;101981.06;6095379;23;20022;-53
2022/10/29 01:49:50;;;;;;;21.85;9.25;;;;;;;16.18;100.00;101988.19;6094404;23;20026;-56
2022/10/29 01:52:19;;;;;;;20.25;9.90;;;;;;;16.19;100.00;101976.09;6096475;23;20022;-55
2022/10/29 01:54:47;;;;;;;20.20;8.85;;;;;;;16.16;100.00;101968.41;6072642;23;20088;-55
2022/10/29 01:57:34;;;;;;;28.17;9.95;;;;;;;16.15;100.00;101966.75;6073178;23;20029;-52
2022/10/29 02:00:11;;;;;;;22.67;10.30;;;;;;;16.15;100.00;101960.44;6097018;23;20027;-53
2022/10/29 02:03:00;;;;;;;20.63;9.25;;;;;;;16.12;100.00;101956.31;6097464;23;20387;-55
2022/10/29 02:06:02;;;;;;;27.58;9.70;;;;;;;16.08;100.00;101946.97;6097126;23;20018;-55
2022/10/29 02:08:48;;;;;;;18.08;9.50;;;;;;;16.08;100.00;101944.22;6098585;23;20018;-56
2022/10/29 02:11:35;;;;;;;21.20;9.50;;;;;;;16.07;100.00;101936.28;6098310;23;20014;-55
2022/10/29 02:14:06;;;;;;;23.42;9.55;;;;;;;16.05;100.00;101939.28;6098063;23;20030;-52
2022/10/29 02:16:34;;;;;;;18.75;9.07;;;;;;;16.06;100.00;101940.09;6096521;23;20018;-55
2022/10/29 02:19:02;;;;;;;23.50;9.48;;;;;;;16.06;100.00;101951.91;6096618;23;20022;-55
2022/10/29 02:21:30;;;;;;;22.52;9.90;;;;;;;16.05;100.00;101950.28;6097278;23;20026;-54
2022/10/29 02:23:57;;;;;;;19.90;9.48;;;;;;;16.05;100.00;101950.28;6097771;23;20026;-56
2022/10/29 02:26:25;;;;;;;19.50;9.63;;;;;;;16.05;100.00;101938.47;6097985;23;20391;-54
2022/10/29 02:28:52;;;;;;;21.35;9.60;;;;;;;16.04;100.00;101942.31;6096066;23;20466;-53
2022/10/29 02:31:20;;;;;;;19.48;9.45;;;;;;;16.03;100.00;101946.97;6097500;23;20335;-52
2022/10/29 02:33:48;;;;;;;21.42;9.23;;;;;;;16.02;100.00;101939.00;6097792;23;20014;-55
2022/10/29 02:36:15;;;;;;;25.98;10.07;;;;;;;16.02;100.00;101936.25;6071845;23;20022;-56
2022/10/29 02:38:43;;;;;;;20.50;9.93;;;;;;;16.01;100.00;101932.69;6098035;23;20029;-55
2022/10/29 02:41:10;;;;;;;21.95;9.18;;;;;;;15.99;100.00;101934.88;6098424;23;20022;-55
2022/10/29 02:43:38;;;;;;;24.15;9.50;;;;;;;15.99;100.00;101923.88;6097997;23;20018;-57
2022/10/29 02:46:17;;;;;;;17.25;8.82;;;;;;;15.98;100.00;101927.75;6098143;23;20081;-57
2022/10/29 02:48:45;;;;;;;19.38;9.85;;;;;;;15.97;100.00;101921.44;6096525;23;20383;-55
2022/10/29 02:51:13;;;;;;;20.27;9.40;;;;;;;15.97;100.00;101915.13;6072965;23;20022;-57
2022/10/29 02:53:41;;;;;;;25.25;9.70;;;;;;;15.95;100.00;101914.56;6096582;23;20023;-54
2022/10/29 02:56:09;;;;;;;22.17;8.90;;;;;;;15.94;100.00;101915.66;6097301;23;20085;-54
2022/10/29 02:58:36;;;;;;;24.67;9.25;;;;;;;15.94;100.00;101910.97;6097255;23;20023;-52
2022/10/29 03:01:05;;;;;;;20.83;10.13;;;;;;;15.89;100.00;101904.66;6098265;23;20062;-57
2022/10/29 03:03:33;;;;;;;20.55;8.88;;;;;;;15.84;100.00;101904.69;6097496;23;20026;-55
2022/10/29 03:06:00;;;;;;;15.90;8.70;;;;;;;15.80;100.00;101903.56;6097747;23;20077;-55
2022/10/29 03:08:28;;;;;;;21.85;9.70;;;;;;;15.77;100.00;101908.53;6096525;23;20019;-53
2022/10/29 03:10:56;;;;;;;21.80;9.43;;;;;;;15.75;100.00;101905.25;6098101;23;20030;-56
2022/10/29 03:13:23;;;;;;;22.65;9.73;;;;;;;15.72;100.00;101914.03;6096358;23;20030;-55
2022/10/29 03:15:51;;;;;;;21.73;9.48;;;;;;;15.71;100.00;101911.56;6097705;23;20014;-49
2022/10/29 03:18:18;;;;;;;26.15;9.68;;;;;;;15.71;100.00;101914.31;6098058;23;20073;-51
2022/10/29 03:20:46;;;;;;;20.38;9.63;;;;;;;15.71;100.00;101901.41;6098230;23;20014;-48
2022/10/29 03:23:14;;;;;;;21.10;9.73;;;;;;;15.71;100.00;101898.66;6090695;23;20033;-52
2022/10/29 03:25:41;;;;;;;23.95;9.10;;;;;;;15.73;100.00;101899.22;6096821;23;20018;-50
2022/10/29 03:28:09;;;;;;;20.80;8.45;;;;;;;15.73;100.00;101898.38;6097856;23;20018;-50
2022/10/29 03:30:37;;;;;;;21.50;9.20;;;;;;;15.70;100.00;101894.25;6096186;23;20375;-52
2022/10/29 03:33:04;;;;;;;22.45;9.48;;;;;;;15.72;100.00;101893.97;6097420;23;20023;-50
2022/10/29 03:35:32;;;;;;;21.38;10.23;;;;;;;15.72;100.00;101893.97;6098048;23;20605;-51
2022/10/29 03:37:59;;;;;;;18.63;9.35;;;;;;;15.70;100.00;101891.50;6097412;23;20478;-50
2022/10/29 03:40:27;;;;;;;22.27;9.35;;;;;;;15.71;100.00;101895.09;6097861;23;20022;-50
2022/10/29 03:42:54;;;;;;;18.77;8.93;;;;;;;15.72;100.00;101896.72;6097433;23;20463;-52
2022/10/29 03:45:22;;;;;;;20.70;9.63;;;;;;;15.67;100.00;101894.78;6097351;23;20019;-52
2022/10/29 03:47:50;;;;;;;21.13;8.73;;;;;;;15.64;100.00;101892.59;6096381;23;20070;-52
2022/10/29 03:50:18;;;;;;;19.67;9.38;;;;;;;15.58;100.00;101887.34;6097817;23;20022;-52
2022/10/29 03:52:45;;;;;;;21.67;9.30;;;;;;;15.48;100.00;101886.25;6098259;23;20018;-55
2022/10/29 03:55:13;;;;;;;17.30;9.32;;;;;;;15.42;100.00;101892.06;6100327;23;20082;-52
2022/10/29 03:57:40;;;;;;;24.38;10.80;;;;;;;15.38;100.00;101888.19;6098626;23;20011;-55
2022/10/29 04:00:09;;;;;;;19.52;8.70;;;;;;;15.37;100.00;101890.13;6100058;23;20038;-52
2022/10/29 04:02:52;;;;;;;21.35;9.98;;;;;;;15.40;100.00;101883.25;6099251;23;20078;-53
2022/10/29 04:05:21;;;;;;;25.02;10.80;;;;;;;15.40;100.00;101883.25;6098714;23;20342;-50
2022/10/29 04:07:48;;;;;;;18.58;9.70;;;;;;;15.38;100.00;101880.78;6096058;23;20026;-50
2022/10/29 04:10:16;;;;;;;20.65;10.00;;;;;;;15.38;100.00;101891.75;6097273;23;20029;-50
2022/10/29 04:12:46;;;;;;;21.88;9.85;;;;;;;15.37;100.00;101878.28;6097410;23;20018;-51
2022/10/29 04:15:14;;;;;;;18.77;9.43;;;;;;;15.34;100.00;101868.69;6098203;23;20026;-56
2022/10/29 04:17:41;;;;;;;21.27;9.60;;;;;;;15.32;100.00;101868.97;6098816;23;20070;-52
2022/10/29 04:20:10;;;;;;;22.75;9.30;;;;;;;15.31;100.00;101859.06;6099767;23;20328;-53
2022/10/29 04:22:57;;;;;;;17.10;9.32;;;;;;;15.29;100.00;101850.28;6099014;23;20082;-53
2022/10/29 04:25:57;;;;;;;19.33;9.88;;;;;;;15.30;100.00;101834.66;6098048;23;20042;-54
2022/10/29 04:28:48;;;;;;;25.30;9.35;;;;;;;15.30;100.00;101851.13;6097940;23;20046;-55
2022/10/29 04:31:16;;;;;;;21.15;10.20;;;;;;;15.32;100.00;101847.00;6098005;23;20023;-54
2022/10/29 04:33:44;;;;;;;21.75;9.20;;;;;;;15.36;100.00;101854.69;6099606;23;20023;-53
2022/10/29 04:36:12;;;;;;;22.10;10.20;;;;;;;15.36;100.00;101852.75;6095827;23;20065;-51
2022/10/29 04:38:39;;;;;;;17.27;9.73;;;;;;;15.32;100.00;101844.25;6095977;23;20018;-52
2022/10/29 04:41:07;;;;;;;25.73;10.40;;;;;;;15.30;100.00;101845.63;6095707;23;20018;-51
2022/10/29 04:43:34;;;;;;;22.15;10.15;;;;;;;15.28;100.00;101837.66;6096959;23;20034;-51
2022/10/29 04:46:02;;;;;;;24.65;10.70;;;;;;;15.24;100.00;101835.75;6097098;23;20018;-49
2022/10/29 04:48:30;;;;;;;21.40;10.02;;;;;;;15.20;100.00;101835.47;6097320;23;20316;-49
2022/10/29 04:50:57;;;;;;;26.30;10.82;;;;;;;15.19;100.00;101833.81;6097002;23;20026;-49
2022/10/29 04:53:25;;;;;;;18.45;10.43;;;;;;;15.23;100.00;101845.91;6096523;23;20033;-51
2022/10/29 04:55:59;;;;;;;20.30;10.13;;;;;;;15.27;100.00;101846.16;6095590;23;20015;-51
2022/10/29 04:58:27;;;;;;;21.92;10.23;;;;;;;15.31;100.00;101850.00;6096725;23;20027;-53
2022/10/29 05:01:01;;;;;;;18.75;9.68;;;;;;;15.33;100.00;101848.63;6095682;23;20030;-50
2022/10/29 05:03:29;;;;;;;19.25;9.60;;;;;;;15.37;100.00;101839.84;6095320;23;20408;-55
2022/10/29 05:05:57;;;;;;;21.35;9.35;;;;;;;15.39;100.00;101843.16;6095284;23;20022;-50
2022/10/29 05:08:25;;;;;;;20.80;9.82;;;;;;;15.41;100.00;101849.19;6096962;23;20026;-50
2022/10/29 05:10:52;;;;;;;23.25;9.75;;;;;;;15.38;100.00;101841.50;6096943;23;20062;-52
2022/10/29 05:13:20;;;;;;;21.38;10.90;;;;;;;15.31;100.00;101837.09;6095177;23;20085;-52
2022/10/29 05:15:51;;;;;;;19.17;10.43;;;;;;;15.25;100.00;101838.22;6096553;23;20018;-51
2022/10/29 05:18:20;;;;;;;22.73;9.98;;;;;;;15.20;100.00;101830.00;6094960;23;20109;-52
2022/10/29 05:20:47;;;;;;;18.02;9.98;;;;;;;15.16;100.00;101828.88;6096094;23;20387;-52
2022/10/29 05:23:15;;;;;;;20.60;10.20;;;;;;;15.17;100.00;101819.53;6094656;23;20113;-50
2022/10/29 05:25:47;;;;;;;21.70;10.68;;;;;;;15.19;100.00;101831.06;6096293;23;20021;-49
2022/10/29 05:28:18;;;;;;;25.42;11.13;;;;;;;15.21;100.00;101830.81;6070834;23;20109;-49
2022/10/29 05:30:46;;;;;;;22.77;10.90;;;;;;;15.22;100.00;101825.03;6096526;23;20027;-49
2022/10/29 05:33:16;;;;;;;19.23;9.88;;;;;;;15.23;100.00;101826.69;6094063;23;20018;-52
2022/10/29 05:35:44;;;;;;;25.65;11.38;;;;;;;15.23;100.00;101823.94;6096714;23;20026;-52
2022/10/29 05:38:12;;;;;;;23.25;10.48;;;;;;;15.23;100.00;101823.94;6094592;23;20018;-49
2022/10/29 05:40:43;;;;;;;24.23;11.90;;;;;;;15.21;100.00;101815.16;6092910;23;20023;-52
2022/10/29 05:43:13;;;;;;;23.70;10.75;;;;;;;15.20;100.00;101819.00;6091175;23;20078;-54
2022/10/29 05:45:41;;;;;;;20.75;10.30;;;;;;;15.19;100.00;101820.09;6091179;23;20018;-53
2022/10/29 05:48:10;;;;;;;19.33;10.13;;;;;;;15.21;100.00;101817.06;6092618;23;20025;-53
2022/10/29 05:50:38;;;;;;;29.58;11.02;;;;;;;15.22;100.00;101821.47;6092832;23;20030;-53
2022/10/29 05:53:08;;;;;;;24.48;10.48;;;;;;;15.19;100.00;101806.34;6092123;23;20026;-56
2022/10/29 05:55:36;;;;;;;21.08;9.13;;;;;;;15.20;100.00;101801.69;6092572;23;20033;-55
2022/10/29 05:58:06;;;;;;;21.80;10.85;;;;;;;15.19;100.00;101803.63;6092546;23;20025;-52
2022/10/29 06:00:36;;;;;;;22.20;10.13;;;;;;;15.19;100.00;101811.84;6092604;23;20499;-51
2022/10/29 06:03:24;;;;;;;21.42;10.30;;;;;;;15.21;100.00;101806.91;6092473;23;20033;-52
2022/10/29 06:05:52;;;;;;;21.00;10.70;;;;;;;15.23;100.00;101810.22;6092692;23;20019;-50
2022/10/29 06:08:19;;;;;;;22.05;10.30;;;;;;;15.22;100.00;101800.31;6090884;23;20073;-49
2022/10/29 06:10:47;;;;;;;22.98;10.73;;;;;;;15.22;100.00;101808.53;6092961;23;20033;-50
2022/10/29 06:13:19;;;;;;;19.42;10.02;;;;;;;15.25;100.00;101798.94;6089438;23;20078;-48
2022/10/29 06:15:48;;;;;;;22.13;10.48;;;;;;;15.26;100.00;101784.94;6066274;23;20026;-50
2022/10/29 06:18:16;;;;;;;22.70;10.38;;;;;;;15.24;100.00;101787.13;6090874;23;20037;-53
2022/10/29 06:20:44;;;;;;;20.63;9.88;;;;;;;15.25;100.00;101788.81;6093044;23;20034;-50
2022/10/29 06:23:11;;;;;;;25.02;10.85;;;;;;;15.26;100.00;101779.44;6092960;23;20030;-49
2022/10/29 06:25:39;;;;;;;29.35;10.93;;;;;;;15.26;100.00;101779.44;6092736;23;20022;-50
2022/10/29 06:28:17;;;;;;;20.33;9.93;;;;;;;15.27;100.00;101802.22;6093121;23;20395;-50
2022/10/29 06:30:47;;;;;;;23.63;10.13;;;;;;;15.27;100.00;101803.06;6068026;23;20038;-51
2022/10/29 06:33:16;;;;;;;23.13;10.10;;;;;;;15.29;100.00;101789.88;6092833;23;20478;-52
2022/10/29 06:35:44;;;;;;;26.90;11.05;;;;;;;15.28;100.00;101799.22;6071539;23;20482;-55
2022/10/29 06:38:12;;;;;;;22.75;9.80;;;;;;;15.28;100.00;101804.72;6097332;23;20030;-52
2022/10/29 06:40:40;;;;;;;32.78;11.73;;;;;;;15.26;100.00;101812.41;6096141;23;20078;-50
2022/10/29 06:43:12;;;;;;;26.95;11.70;;;;;;;15.28;100.00;101809.38;6098050;23;20022;-47
2022/10/29 06:45:39;;;;;;;32.25;11.32;;;;;;;15.31;100.00;101811.56;6098182;23;20030;-48
2022/10/29 06:48:07;;;;;;;31.50;11.43;;;;;;;15.34;100.00;101811.00;6096150;23;20070;-47
2022/10/29 06:50:35;;;;;;;23.85;10.15;;;;;;;15.33;100.00;101818.44;6094768;23;20137;-50
2022/10/29 06:53:05;;;;;;;24.27;11.05;;;;;;;15.34;100.00;101814.59;6097629;23;20022;-51
2022/10/29 06:55:34;;;;;;;26.05;11.27;;;;;;;15.32;100.00;101822.28;6096178;23;20451;-52
2022/10/29 06:58:08;;;;;;;26.75;11.25;;;;;;;15.31;100.00;101822.56;6096557;23;20050;-52
2022/10/29 07:00:35;;;;;;;20.58;10.10;;;;;;;15.30;100.00;101819.00;6097080;23;20034;-53
2022/10/29 07:03:06;;;;;;;27.48;10.50;;;;;;;15.30;100.00;101824.47;6098002;23;20022;-53
2022/10/29 07:05:35;;;;;;;19.65;9.95;;;;;;;15.30;100.00;101829.97;6096585;23;20029;-50
2022/10/29 07:08:02;;;;;;;24.73;10.90;;;;;;;15.29;100.00;101822.00;6097779;23;20026;-50
2022/10/29 07:10:31;;;;;;;22.58;10.52;;;;;;;15.24;100.00;101809.09;6097831;23;20026;-52
2022/10/29 07:12:59;;;;;;;26.55;10.38;;;;;;;15.22;100.00;101811.28;6096436;23;20022;-50
2022/10/29 07:15:27;;;;;;;27.40;10.50;;;;;;;15.24;100.00;101808.28;6097394;23;20024;-50
2022/10/29 07:18:02;;;;;;;22.63;10.02;;;;;;;15.25;100.00;101815.41;6096522;23;20023;-50
2022/10/29 07:20:32;;;;;;;21.90;10.13;;;;;;;15.26;100.00;101815.16;6097295;23;20015;-52
2022/10/29 07:23:00;;;;;;;23.73;10.10;;;;;;;15.29;100.00;101805.53;6097588;23;20022;-50
2022/10/29 07:25:28;;;;;;;26.48;10.27;;;;;;;15.29;100.00;101811.84;6095335;23;20018;-52
2022/10/29 07:28:05;;;;;;;26.58;11.10;;;;;;;15.29;100.00;101814.59;6097377;23;20029;-50
2022/10/29 07:30:34;;;;;;;30.00;10.77;;;;;;;15.30;100.00;101819.00;6096189;23;20014;-52
2022/10/29 07:33:01;;;;;;;26.40;10.52;;;;;;;15.30;100.00;101819.00;6097170;23;20018;-51
2022/10/29 07:35:29;;;;;;;34.67;11.52;;;;;;;15.32;100.00;101810.47;6096933;23;20018;-51
2022/10/29 07:38:00;;;;;;;28.48;11.20;;;;;;;15.32;100.00;101800.31;6095961;23;20034;-50
2022/10/29 07:40:37;;;;;;;35.75;12.18;;;;;;;15.34;100.00;101802.78;6096085;23;20032;-51
2022/10/29 07:43:05;;;;;;;28.92;11.05;;;;;;;15.36;100.00;101794.28;6096127;23;20074;-50
2022/10/29 07:45:33;;;;;;;20.70;10.60;;;;;;;15.37;100.00;101795.91;6097634;23;20070;-52
2022/10/29 07:48:02;;;;;;;22.42;9.43;;;;;;;15.38;100.00;101797.56;6097446;23;20033;-50
2022/10/29 07:50:31;;;;;;;26.67;10.48;;;;;;;15.37;100.00;101801.41;6097269;23;20014;-51
2022/10/29 07:52:59;;;;;;;24.25;10.50;;;;;;;15.37;100.00;101795.91;6097029;23;20407;-49
2022/10/29 07:55:27;;;;;;;25.13;9.82;;;;;;;15.38;100.00;101808.56;6096164;23;20025;-49
2022/10/29 07:58:01;;;;;;;21.52;9.68;;;;;;;15.42;100.00;101795.94;6097125;23;20346;-54
2022/10/29 08:00:39;;;;;;;23.42;11.25;;;;;;;15.44;100.00;101793.69;6095851;23;20106;-54
2022/10/29 08:03:09;;;;;;;25.25;10.10;;;;;;;15.46;100.00;101788.75;6097534;23;20081;-49
2022/10/29 08:05:36;;;;;;;24.08;10.07;;;;;;;15.47;100.00;101795.91;6095804;23;20034;-49
2022/10/29 08:08:04;;;;;;;22.15;10.73;;;;;;;15.49;100.00;101788.19;6097650;23;20023;-48
2022/10/29 08:10:33;;;;;;;20.38;10.02;;;;;;;15.51;100.00;101781.34;6097161;23;20014;-48
2022/10/29 08:13:02;;;;;;;22.40;10.15;;;;;;;15.54;100.00;101782.72;6097367;23;20022;-49
2022/10/29 08:15:31;;;;;;;22.58;10.30;;;;;;;15.55;100.00;101782.41;6071937;23;20097;-49
2022/10/29 08:17:59;;;;;;;21.40;9.73;;;;;;;15.57;100.00;101782.16;6097674;23;20022;-51
2022/10/29 08:20:27;;;;;;;26.75;11.35;;;;;;;15.60;100.00;101784.34;6097111;23;20338;-50
2022/10/29 08:22:57;;;;;;;23.13;10.40;;;;;;;15.62;100.00;101786.81;6095836;23;20054;-50
2022/10/29 08:25:26;;;;;;;24.27;10.35;;;;;;;15.63;100.00;101789.25;6095584;23;20101;-53
2022/10/29 08:28:01;;;;;;;28.35;11.38;;;;;;;15.67;100.00;101782.13;6097190;23;20081;-52
2022/10/29 08:30:30;;;;;;;24.90;10.25;;;;;;;15.69;100.00;101771.69;6071920;23;20443;-52
2022/10/29 08:32:57;;;;;;;23.80;10.30;;;;;;;15.70;100.00;101767.84;6095821;23;20022;-54
2022/10/29 08:35:26;;;;;;;25.35;10.57;;;;;;;15.73;100.00;101777.50;6095706;23;20022;-54
2022/10/29 08:37:54;;;;;;;26.40;11.02;;;;;;;15.75;100.00;101780.75;6095186;23;20030;-53
2022/10/29 08:40:59;;;;;;;24.83;10.57;;;;;;;15.76;100.00;101766.75;6096980;23;20030;-55
2022/10/29 08:43:33;;;;;;;22.50;10.13;;;;;;;15.78;100.00;101763.72;6097124;23;20022;-50
2022/10/29 08:46:00;;;;;;;33.30;16.65;;;;;;;15.80;100.00;101769.75;6095603;23;20025;-52
2022/10/29 08:48:46;;;;;;;26.80;12.07;;;;;;;15.85;100.00;101763.41;6095312;23;20018;-52
2022/10/29 08:51:41;;;;;;;21.90;11.43;;;;;;;15.88;100.00;101771.13;6095577;23;20022;-51
2022/10/29 08:54:13;;;;;;;23.95;10.68;;;;;;;15.89;100.00;101776.31;6094433;23;20102;-50
2022/10/29 08:57:00;;;;;;;21.17;9.90;;;;;;;15.91;100.00;101778.78;6096552;23;20387;-52
2022/10/29 08:59:31;;;;;;;21.33;10.98;;;;;;;15.92;100.00;101785.91;6095556;23;20022;-49
2022/10/29 09:01:59;;;;;;;26.00;10.48;;;;;;;15.94;100.00;101786.47;6071078;23;20014;-50
2022/10/29 09:04:34;;;;;;;20.92;11.13;;;;;;;15.95;100.00;101774.38;6096655;23;20089;-50
2022/10/29 09:07:24;;;;;;;26.13;11.63;;;;;;;15.96;100.00;101776.84;6096912;23;20392;-50
2022/10/29 09:10:04;;;;;;;22.00;11.57;;;;;;;16.00;100.00;101776.28;6097024;23;20018;-52
2022/10/29 09:12:40;;;;;;;27.45;12.30;;;;;;;16.02;100.00;101763.06;6097395;23;20022;-53
2022/10/29 09:15:14;;;;;;;;;;;;;;;16.02;100.00;101758.41;6096593;23;20029;-51
2022/10/29 09:17:42;;;;;;;27.40;11.63;;;;;;;16.03;100.00;101762.78;6095232;23;19969;-50
2022/10/29 09:20:29;;;;;;;20.02;10.60;;;;;;;16.07;100.00;101747.38;6096649;23;20019;-51
2022/10/29 09:23:29;;;;;;;25.63;10.82;;;;;;;16.09;100.00;101753.44;6095000;23;20031;-50
2022/10/29 09:26:10;;;;;;;22.70;10.02;;;;;;;16.12;100.00;101749.28;6077861;23;20395;-52
2022/10/29 09:28:59;;;;;;;22.30;10.10;;;;;;;16.14;100.00;101745.16;6071163;23;20455;-50
2022/10/29 09:31:39;;;;;;;21.00;10.57;;;;;;;16.18;100.00;101748.97;6095514;23;20463;-49
2022/10/29 09:34:38;;;;;;;24.13;10.38;;;;;;;16.20;100.00;101751.44;6094475;23;20419;-51
2022/10/29 09:37:21;;;;;;;21.63;10.02;;;;;;;16.22;100.00;101751.16;6096240;23;20030;-51
2022/10/29 09:39:49;;;;;;;24.30;10.70;;;;;;;16.24;100.00;101757.22;6094438;23;20026;-50
2022/10/29 09:42:39;;;;;;;26.08;11.20;;;;;;;16.25;100.00;101761.59;6071708;23;20019;-51
2022/10/29 09:45:09;;;;;;;24.30;10.73;;;;;;;16.25;100.00;101747.84;6071194;23;20115;-50
2022/10/29 09:48:09;;;;;;;25.08;11.00;;;;;;;16.25;100.00;101740.41;6095401;23;20034;-51
2022/10/29 09:51:18;;;;;;;27.92;10.73;;;;;;;16.26;100.00;101738.47;6095254;23;20022;-55
2022/10/29 09:53:46;;;;;;;22.73;11.07;;;;;;;16.28;100.00;101753.56;6085702;23;20081;-51
2022/10/29 09:56:14;;;;;;;28.40;10.80;;;;;;;16.30;100.00;101747.81;6096970;23;20328;-51
2022/10/29 09:58:45;;;;;;;23.25;11.45;;;;;;;16.31;100.00;101750.28;6094719;23;20022;-52
2022/10/29 10:01:13;;;;;;;21.80;11.45;;;;;;;16.33;100.00;101747.22;6094660;23;20018;-53
2022/10/29 10:03:46;;;;;;;25.30;11.30;;;;;;;16.34;100.00;101727.72;6096728;23;20023;-50
2022/10/29 10:06:15;;;;;;;23.65;11.27;;;;;;;16.38;100.00;101714.22;6095647;23;20026;-51
2022/10/29 10:09:03;;;;;;;22.10;10.52;;;;;;;16.41;100.00;101705.38;6096545;23;20042;-50
2022/10/29 10:11:41;;;;;;;19.13;11.00;;;;;;;16.46;100.00;101712.78;6097095;23;20027;-50
2022/10/29 10:14:19;;;;;;;19.38;10.13;;;;;;;16.47;100.00;101720.72;6097092;23;20023;-49
2022/10/29 10:16:56;;;;;;;24.67;12.15;;;;;;;16.53;100.00;101714.09;6097183;23;20026;-49
2022/10/29 10:19:30;;;;;;;24.48;12.30;;;;;;;16.57;100.00;101726.19;6098240;23;20018;-52
2022/10/29 10:21:59;;;;;;;29.23;12.10;;;;;;;16.61;100.00;101720.91;6096548;23;20026;-51
2022/10/29 10:24:31;;;;;;;23.52;11.05;;;;;;;16.66;100.00;101725.56;6097900;23;20037;-50
2022/10/29 10:26:59;;;;;;;22.35;13.23;;;;;;;16.72;100.00;101727.19;6098380;23;20026;-52
2022/10/29 10:29:27;;;;;;;22.02;11.70;;;;;;;16.77;100.00;101721.63;6096944;23;20029;-52
2022/10/29 10:31:55;;;;;;;26.02;13.95;;;;;;;16.83;100.00;101717.75;6096796;23;20098;-50
2022/10/29 10:34:24;;;;;;;20.73;12.10;;;;;;;16.86;100.00;101716.34;6097957;23;20078;-50
2022/10/29 10:37:02;;;;;;;28.65;12.43;;;;;;;16.91;100.00;101710.78;6095420;23;20348;-53
2022/10/29 10:39:43;;;;;;;25.13;12.02;;;;;;;16.96;100.00;101710.78;6098046;23;20101;-49
2022/10/29 10:42:27;;;;;;;25.70;11.52;;;;;;;17.00;100.00;101703.56;6097845;23;20029;-50
2022/10/29 10:45:02;;;;;;;21.45;11.52;;;;;;;17.06;100.00;101709.84;6098164;23;20085;-49
2022/10/29 10:47:33;;;;;;;23.20;11.33;;;;;;;17.12;100.00;101695.72;6072635;23;20430;-52
2022/10/29 10:50:14;;;;;;;25.73;11.85;;;;;;;17.24;100.00;101687.06;6095880;23;20018;-50
2022/10/29 10:52:41;;;;;;;22.98;11.13;;;;;;;17.33;100.00;101696.34;6095982;23;20026;-52
2022/10/29 10:55:30;;;;;;;26.35;11.63;;;;;;;17.39;100.00;101692.41;6097228;23;20022;-52
2022/10/29 10:58:00;;;;;;;23.40;11.55;;;;;;;17.45;100.00;101680.22;6072271;23;20158;-51
2022/10/29 11:00:33;;;;;;;20.70;9.93;;;;;;;17.51;100.00;101677.41;6096238;23;20026;-51
2022/10/29 11:03:28;;;;;;;17.85;9.27;;;;;;;17.52;100.00;101671.59;6093423;23;20025;-52
2022/10/29 11:06:04;;;;;;;20.45;9.30;;;;;;;17.54;100.00;101677.63;6097434;23;20026;-50
2022/10/29 11:08:44;;;;;;;25.88;9.85;;;;;;;17.55;100.00;101673.75;6095556;23;20026;-51
2022/10/29 11:11:16;;;;;;;31.02;10.80;;;;;;;17.63;100.00;101675.88;6071829;23;20069;-51
2022/10/29 11:13:44;;;;;;;19.63;9.73;;;;;;;17.72;100.00;101676.03;6092183;23;20029;-51
2022/10/29 11:16:12;;;;;;;22.27;9.90;;;;;;;17.77;100.00;101675.97;6094901;23;20073;-52
2022/10/29 11:18:44;;;;;;;29.58;10.70;;;;;;;17.84;100.00;101684.72;6094495;23;20074;-51
2022/10/29 11:21:20;;;;;;;19.92;8.90;;;;;;;17.90;100.00;101679.16;6094284;23;20022;-53
2022/10/29 11:23:53;;;;;;;22.48;9.95;;;;;;;17.94;100.00;101685.69;6096116;23;20407;-51
2022/10/29 11:26:30;;;;;;;22.85;8.90;;;;;;;17.93;100.00;101690.41;6098033;23;20022;-54
2022/10/29 11:29:28;;;;;;;18.80;9.57;;;;;;;17.93;100.00;101681.31;6096754;23;20033;-54
2022/10/29 11:32:12;;;;;;;28.70;9.55;;;;;;;17.95;100.00;101681.84;6096216;23;20022;-49